0OH9 weather

CLOSED Parknavy Airport
Plain City, Ohio, United States

Public forecast

Using degrees Fahrenheit for public forecast. Weather courtesy of forecast.io.

METAR (pilot weather report)

Closest report is The Ohio State University Airport - Don Scott Field, 7.2 nm (13.4 km) E. Retrieved 2019/05/21 15:53 UTC (8 minutes ago):

KOSU 211553Z 07010KT 10SM CLR 13/04 A3014 RMK AO2 SLP205 T01330044

TAF (pilot weather forecast)

Closest forecast is John Glenn Columbus International Airport, 16.2 nm (29.9 km) ESE. Retrieved 2019/05/21 12:30 UTC (4 hours ago):

TAF KCMH 211129Z 2112/2212 05006KT P6SM FEW030 BKN150 FM211500 07008KT P6SM BKN100 FM220300 09009KT P6SM FEW100 FM221100 11009KT P6SM SCT070 BKN250